createdAt,value
2023-03-12T00:00:16.086Z,66.40
2023-03-12T00:02:42.959Z,66.40
2023-03-12T00:05:10.450Z,66.50
2023-03-12T00:07:39.448Z,66.60
2023-03-12T00:10:06.783Z,66.80
2023-03-12T00:12:33.694Z,66.90
2023-03-12T00:15:01.166Z,66.80
2023-03-12T00:17:30.330Z,66.90
2023-03-12T00:19:57.155Z,67.00
2023-03-12T00:22:25.691Z,66.90
2023-03-12T00:24:54.112Z,66.90
2023-03-12T00:27:21.377Z,66.90
2023-03-12T00:29:49.003Z,66.90
2023-03-12T00:32:16.150Z,66.90
2023-03-12T00:34:43.452Z,67.00
2023-03-12T00:37:10.724Z,66.90
2023-03-12T00:39:37.750Z,66.90
2023-03-12T00:42:04.868Z,66.80
2023-03-12T00:44:31.746Z,66.80
2023-03-12T00:46:58.696Z,66.80
2023-03-12T00:49:25.700Z,66.80
2023-03-12T00:51:52.759Z,66.80
2023-03-12T00:54:19.806Z,66.90
2023-03-12T00:56:47.213Z,66.80
2023-03-12T00:59:16.867Z,66.80
2023-03-12T01:01:44.003Z,66.70
2023-03-12T01:04:11.183Z,66.90
2023-03-12T01:06:38.538Z,66.70
2023-03-12T01:09:07.496Z,66.70
2023-03-12T01:11:35.047Z,66.70
2023-03-12T01:14:04.120Z,67.00
2023-03-12T01:16:31.241Z,66.80
2023-03-12T01:18:59.658Z,66.90
2023-03-12T01:21:27.425Z,66.90
2023-03-12T01:23:55.054Z,66.90
2023-03-12T01:26:22.433Z,67.00
2023-03-12T01:28:50.053Z,67.00
2023-03-12T01:31:18.990Z,67.10
2023-03-12T01:33:50.550Z,67.20
2023-03-12T01:36:24.230Z,67.20
2023-03-12T01:38:52.806Z,67.30
2023-03-12T01:41:20.582Z,67.20
2023-03-12T01:43:48.042Z,67.20
2023-03-12T01:46:27.758Z,67.10
2023-03-12T01:49:11.760Z,67.20
2023-03-12T01:51:47.001Z,67.10
2023-03-12T01:54:39.423Z,67.10
2023-03-12T01:57:12.099Z,67.10
2023-03-12T02:00:02.092Z,67.10
2023-03-12T02:02:29.973Z,67.10
2023-03-12T02:05:11.158Z,67.10
2023-03-12T02:07:38.059Z,66.80
2023-03-12T02:10:05.907Z,66.30
2023-03-12T02:12:32.839Z,66.10
2023-03-12T02:14:59.816Z,66.10
2023-03-12T02:17:26.696Z,66.20
2023-03-12T02:20:08.074Z,66.40
2023-03-12T02:22:36.599Z,66.50
2023-03-12T02:25:18.864Z,66.60
2023-03-12T02:27:46.688Z,66.60
2023-03-12T02:30:16.116Z,66.60
2023-03-12T02:32:45.638Z,66.40
2023-03-12T02:35:14.053Z,66.50
2023-03-12T02:37:51.661Z,66.60
2023-03-12T02:40:33.815Z,66.80
2023-03-12T02:43:02.458Z,66.70
2023-03-12T02:45:29.958Z,66.70
2023-03-12T02:47:56.873Z,66.80
2023-03-12T02:50:23.958Z,67.00
2023-03-12T02:52:50.995Z,67.10
2023-03-12T02:55:17.967Z,67.30
2023-03-12T02:57:44.865Z,67.20
2023-03-12T03:00:15.352Z,67.30
2023-03-12T03:02:43.378Z,67.40
2023-03-12T03:05:11.744Z,67.30
2023-03-12T03:07:41.699Z,67.30
2023-03-12T03:10:10.411Z,67.10
2023-03-12T03:12:37.665Z,67.20
2023-03-12T03:15:05.149Z,67.40
2023-03-12T03:17:32.095Z,67.60
2023-03-12T03:19:58.925Z,67.80
2023-03-12T03:22:25.854Z,67.70
2023-03-12T03:24:54.435Z,67.60
2023-03-12T03:27:21.297Z,67.70
2023-03-12T03:32:15.241Z,67.90
2023-03-12T03:34:42.254Z,67.70
2023-03-12T03:37:09.075Z,67.70
2023-03-12T03:39:35.980Z,67.80
2023-03-12T03:42:02.916Z,67.90
2023-03-12T03:44:30.516Z,68.00
2023-03-12T03:46:57.490Z,68.10
2023-03-12T03:49:24.363Z,68.10
2023-03-12T03:51:54.423Z,68.00
2023-03-12T03:54:21.387Z,68.00
2023-03-12T03:56:48.424Z,68.00
2023-03-12T03:59:15.319Z,68.00
2023-03-12T04:01:42.240Z,67.90
2023-03-12T04:04:09.116Z,67.80
2023-03-12T04:06:36.285Z,67.90
2023-03-12T04:09:03.771Z,67.90
2023-03-12T04:11:30.710Z,67.90
2023-03-12T04:13:57.877Z,67.70
2023-03-12T04:16:24.912Z,67.70
2023-03-12T04:18:51.906Z,67.60
2023-03-12T04:21:19.003Z,67.80
2023-03-12T04:23:45.855Z,67.80
2023-03-12T04:26:12.850Z,67.90
2023-03-12T04:28:39.688Z,67.90
2023-03-12T04:31:08.527Z,67.90
2023-03-12T04:33:37.658Z,67.90
2023-03-12T04:36:05.096Z,67.90
2023-03-12T04:38:32.049Z,67.90
2023-03-12T04:41:11.608Z,67.90
2023-03-12T04:43:38.598Z,68.00
2023-03-12T04:46:06.229Z,67.80
2023-03-12T04:48:34.129Z,68.00
2023-03-12T04:51:01.392Z,68.00
2023-03-12T04:53:28.342Z,67.90
2023-03-12T04:55:55.665Z,67.70
2023-03-12T04:58:23.201Z,67.60
2023-03-12T05:00:50.750Z,67.80
2023-03-12T05:03:18.247Z,67.70
2023-03-12T05:05:45.106Z,67.70
2023-03-12T05:08:11.951Z,67.50
2023-03-12T05:10:39.228Z,67.50
2023-03-12T05:13:14.081Z,67.70
2023-03-12T05:15:41.165Z,67.80
2023-03-12T05:18:07.963Z,67.80
2023-03-12T05:20:34.828Z,67.90
2023-03-12T05:23:01.741Z,67.80
2023-03-12T05:25:28.626Z,67.80
2023-03-12T05:27:56.276Z,67.70
2023-03-12T05:30:23.268Z,67.60
2023-03-12T05:32:50.136Z,67.60
2023-03-12T05:35:17.088Z,67.40
2023-03-12T05:37:44.322Z,67.40
2023-03-12T05:40:12.738Z,67.30
2023-03-12T05:42:39.637Z,67.60
2023-03-12T05:45:07.202Z,67.30
2023-03-12T05:47:34.015Z,67.00
2023-03-12T05:50:00.824Z,67.10
2023-03-12T05:52:27.713Z,67.00
2023-03-12T05:54:54.616Z,67.00
2023-03-12T05:57:21.431Z,67.00
2023-03-12T05:59:48.266Z,67.00
2023-03-12T06:02:15.101Z,67.00
2023-03-12T06:04:42.015Z,66.90
2023-03-12T06:07:08.964Z,66.70
2023-03-12T06:09:36.373Z,66.40
2023-03-12T06:12:03.335Z,66.30
2023-03-12T06:14:30.186Z,66.10
2023-03-12T06:16:57.257Z,65.70
2023-03-12T06:19:24.117Z,65.50
2023-03-12T06:21:51.041Z,65.40
2023-03-12T06:24:17.908Z,65.40
2023-03-12T06:26:44.819Z,65.30
2023-03-12T06:29:11.959Z,65.30
2023-03-12T06:31:39.803Z,65.30
2023-03-12T06:34:06.714Z,65.10
2023-03-12T06:36:33.935Z,65.10
2023-03-12T06:39:00.770Z,65.10
2023-03-12T06:41:27.628Z,65.10
2023-03-12T06:43:54.542Z,64.80
2023-03-12T06:46:21.945Z,64.90
2023-03-12T06:48:49.009Z,64.70
2023-03-12T06:51:17.106Z,64.60
2023-03-12T06:53:45.438Z,64.50
2023-03-12T06:56:13.646Z,64.40
2023-03-12T06:58:41.141Z,64.50
2023-03-12T07:01:08.470Z,64.20
2023-03-12T07:03:35.420Z,64.30
2023-03-12T07:06:02.284Z,64.20
2023-03-12T07:08:32.387Z,63.80
2023-03-12T07:11:01.859Z,63.80
2023-03-12T07:13:29.894Z,63.80
2023-03-12T07:15:56.965Z,63.80
2023-03-12T07:18:23.858Z,63.60
2023-03-12T07:20:52.057Z,63.50
2023-03-12T07:23:19.177Z,63.60
2023-03-12T07:25:46.138Z,63.30
2023-03-12T07:28:13.321Z,63.40
2023-03-12T07:30:40.537Z,63.60
2023-03-12T07:33:11.057Z,63.50
2023-03-12T07:35:39.211Z,63.60
2023-03-12T07:38:07.364Z,63.70
2023-03-12T07:40:34.485Z,63.70
2023-03-12T07:43:02.163Z,63.30
2023-03-12T07:45:29.268Z,63.40
2023-03-12T07:47:56.236Z,63.40
2023-03-12T07:50:24.027Z,63.40
2023-03-12T07:52:51.473Z,63.20
2023-03-12T07:55:18.583Z,63.10
2023-03-12T07:57:45.695Z,63.40
2023-03-12T08:00:13.564Z,63.20
2023-03-12T08:02:40.664Z,63.10
2023-03-12T08:05:08.149Z,62.70
2023-03-12T08:07:35.756Z,62.60
2023-03-12T08:10:06.105Z,62.60
2023-03-12T08:12:33.220Z,63.00
2023-03-12T08:15:00.159Z,62.80
2023-03-12T08:17:27.112Z,63.20
2023-03-12T08:19:54.238Z,63.20
2023-03-12T08:22:21.075Z,63.30
2023-03-12T08:24:47.949Z,63.00
2023-03-12T08:27:14.865Z,62.30
2023-03-12T08:29:42.166Z,62.40
2023-03-12T08:32:10.906Z,62.50
2023-03-12T08:34:38.184Z,62.60
2023-03-12T08:37:05.899Z,62.40
2023-03-12T08:39:32.941Z,62.10
2023-03-12T08:42:00.119Z,61.70
2023-03-12T08:44:27.343Z,61.90
2023-03-12T08:46:54.310Z,61.30
2023-03-12T08:49:21.710Z,60.90
2023-03-12T08:51:48.999Z,60.90
2023-03-12T08:54:15.899Z,61.10
2023-03-12T08:56:43.742Z,59.50
2023-03-12T08:59:11.819Z,59.80
2023-03-12T09:01:40.659Z,59.70
2023-03-12T09:04:09.394Z,60.50
2023-03-12T09:06:36.385Z,61.10
2023-03-12T09:09:05.175Z,59.70
2023-03-12T09:11:33.984Z,57.70
2023-03-12T09:14:42.449Z,57.00
2023-03-12T09:16:49.781Z,55.20
2023-03-12T09:19:16.699Z,54.60
2023-03-12T09:21:43.947Z,53.30
2023-03-12T09:24:11.779Z,52.60
2023-03-12T09:26:38.631Z,51.60
2023-03-12T09:29:05.631Z,51.50
2023-03-12T09:31:32.574Z,51.10
2023-03-12T09:33:59.463Z,52.10
2023-03-12T09:36:26.311Z,51.80
2023-03-12T09:38:53.983Z,51.40
2023-03-12T09:41:34.271Z,50.40
2023-03-12T09:44:26.381Z,49.50
2023-03-12T09:47:33.345Z,48.70
2023-03-12T09:50:27.414Z,49.00
2023-03-12T09:53:03.296Z,46.60
2023-03-12T09:55:40.261Z,46.40
2023-03-12T09:58:28.714Z,46.90
2023-03-12T10:01:01.932Z,47.50
2023-03-12T10:04:12.856Z,48.20
2023-03-12T10:06:51.299Z,48.90
2023-03-12T10:09:36.467Z,48.60
2023-03-12T10:12:26.493Z,47.30
2023-03-12T10:15:12.384Z,45.10
2023-03-12T10:17:57.925Z,43.00
2023-03-12T10:20:54.041Z,41.70
2023-03-12T10:23:30.269Z,40.90
2023-03-12T10:26:08.791Z,38.80
2023-03-12T10:28:46.492Z,38.00
2023-03-12T10:31:28.920Z,38.10
2023-03-12T10:33:58.764Z,39.30
2023-03-12T10:36:34.096Z,38.80
2023-03-12T10:39:01.107Z,37.70
2023-03-12T10:41:34.890Z,37.00
2023-03-12T10:44:07.784Z,36.90
2023-03-12T10:46:34.777Z,37.40
2023-03-12T10:49:23.611Z,38.40
2023-03-12T10:52:17.180Z,39.20
2023-03-12T10:54:46.333Z,39.70
2023-03-12T10:57:15.471Z,38.70
2023-03-12T10:59:45.520Z,39.50
2023-03-12T11:02:44.487Z,38.60
2023-03-12T11:05:24.537Z,39.60
2023-03-12T11:07:52.056Z,39.60
2023-03-12T11:10:37.459Z,39.60
2023-03-12T11:13:20.387Z,40.00
2023-03-12T11:15:47.922Z,40.70
2023-03-12T11:18:25.308Z,40.20
2023-03-12T11:21:16.546Z,40.20
2023-03-12T11:24:04.959Z,40.50
2023-03-12T11:26:46.967Z,40.40
2023-03-12T11:29:40.406Z,41.00
2023-03-12T11:32:17.302Z,41.40
2023-03-12T11:34:49.676Z,41.90
2023-03-12T11:37:43.109Z,41.70
2023-03-12T11:40:50.480Z,41.60
2023-03-12T11:43:39.910Z,41.90
2023-03-12T11:46:40.846Z,39.90
2023-03-12T11:49:27.840Z,39.30
2023-03-12T11:52:08.821Z,40.70
2023-03-12T11:54:57.884Z,41.00
2023-03-12T11:57:52.746Z,40.30
2023-03-12T12:00:33.673Z,40.30
2023-03-12T12:03:19.521Z,40.60
2023-03-12T12:05:58.193Z,40.70
2023-03-12T12:08:59.161Z,40.20
2023-03-12T12:11:45.629Z,41.00
2023-03-12T12:14:15.190Z,40.90
2023-03-12T12:17:01.583Z,40.60
2023-03-12T12:19:37.104Z,40.80
2023-03-12T12:22:22.628Z,40.60
2023-03-12T12:25:11.031Z,40.20
2023-03-12T12:27:52.083Z,39.80
2023-03-12T12:30:48.605Z,40.00
2023-03-12T12:33:22.762Z,40.50
2023-03-12T12:35:50.286Z,39.70
2023-03-12T12:38:29.893Z,39.80
2023-03-12T12:41:11.104Z,39.50
2023-03-12T12:43:51.210Z,39.80
2023-03-12T12:46:28.347Z,39.90
2023-03-12T12:48:59.473Z,40.60
2023-03-12T12:51:41.731Z,39.30
2023-03-12T12:54:51.731Z,39.80
2023-03-12T12:57:29.057Z,39.60
2023-03-12T13:00:23.320Z,40.30
2023-03-12T13:02:51.463Z,40.20
2023-03-12T13:05:40.470Z,40.20
2023-03-12T13:08:10.968Z,40.50
2023-03-12T13:10:48.525Z,39.90
2023-03-12T13:13:27.168Z,39.60
2023-03-12T13:16:20.053Z,39.70
2023-03-12T13:19:13.465Z,40.00
2023-03-12T13:21:58.754Z,40.40
2023-03-12T13:24:33.543Z,38.70
2023-03-12T13:27:14.687Z,38.20
2023-03-12T13:29:42.687Z,37.50
2023-03-12T13:32:29.739Z,37.10
2023-03-12T13:34:58.020Z,37.10
2023-03-12T13:37:47.409Z,36.10
2023-03-12T13:40:29.573Z,37.00
2023-03-12T13:43:08.345Z,38.80
2023-03-12T13:45:59.993Z,37.90
2023-03-12T13:48:27.488Z,37.10
2023-03-12T13:50:59.517Z,35.70
2023-03-12T13:53:33.406Z,34.00
2023-03-12T13:56:10.801Z,32.80
2023-03-12T13:58:57.571Z,33.60
2023-03-12T14:01:32.285Z,34.70
2023-03-12T14:04:04.182Z,33.70
2023-03-12T14:06:46.223Z,34.10
2023-03-12T14:09:13.147Z,34.80
2023-03-12T14:12:01.178Z,34.30
2023-03-12T14:14:47.985Z,35.20
2023-03-12T14:17:19.028Z,34.30
2023-03-12T14:19:51.171Z,34.50
2023-03-12T14:22:22.812Z,33.70
2023-03-12T14:24:54.605Z,33.20
2023-03-12T14:27:27.735Z,33.90
2023-03-12T14:30:21.204Z,34.10
2023-03-12T14:32:53.591Z,34.80
2023-03-12T14:35:37.239Z,34.60
2023-03-12T14:38:15.069Z,34.30
2023-03-12T14:40:57.211Z,34.40
2023-03-12T14:43:30.854Z,34.60
2023-03-12T14:46:04.167Z,34.60
2023-03-12T14:48:34.617Z,34.60
2023-03-12T14:51:03.821Z,35.10
2023-03-12T14:53:37.124Z,34.70
2023-03-12T14:56:30.912Z,35.10
2023-03-12T14:58:59.894Z,35.20
2023-03-12T15:01:32.460Z,35.20
2023-03-12T15:04:05.971Z,34.80
2023-03-12T15:06:34.203Z,35.00
2023-03-12T15:09:04.462Z,35.90
2023-03-12T15:11:33.582Z,34.60
2023-03-12T15:14:14.574Z,34.10
2023-03-12T15:16:43.251Z,34.20
2023-03-12T15:19:14.039Z,34.70
2023-03-12T15:21:40.992Z,35.30
2023-03-12T15:24:13.359Z,34.50
2023-03-12T15:26:41.515Z,34.10
2023-03-12T15:29:14.235Z,33.80
2023-03-12T15:31:43.877Z,33.70
2023-03-12T15:34:28.119Z,33.80
2023-03-12T15:36:55.368Z,32.30
2023-03-12T15:39:27.618Z,32.70
2023-03-12T15:41:55.843Z,32.40
2023-03-12T15:44:29.126Z,32.50
2023-03-12T15:47:04.221Z,31.70
2023-03-12T15:49:35.466Z,32.30
2023-03-12T15:52:22.082Z,33.10
2023-03-12T15:55:14.848Z,32.70
2023-03-12T15:57:53.130Z,33.30
2023-03-12T16:00:28.004Z,34.20
2023-03-12T16:03:00.435Z,33.60
2023-03-12T16:05:36.345Z,33.90
2023-03-12T16:08:20.909Z,34.00
2023-03-12T16:10:49.457Z,34.00
2023-03-12T16:13:20.176Z,33.50
2023-03-12T16:15:48.075Z,34.40
2023-03-12T16:18:20.019Z,34.00
2023-03-12T16:20:48.727Z,33.90
2023-03-12T16:23:16.005Z,35.00
2023-03-12T16:25:49.332Z,34.70
2023-03-12T16:28:18.555Z,35.00
2023-03-12T16:30:45.674Z,35.30
2023-03-12T16:33:15.445Z,34.90
2023-03-12T16:35:42.743Z,35.60
2023-03-12T16:38:09.668Z,36.00
2023-03-12T16:40:39.401Z,36.20
2023-03-12T16:43:11.136Z,36.20
2023-03-12T16:45:42.166Z,36.20
2023-03-12T16:48:18.108Z,36.60
2023-03-12T16:50:56.744Z,36.60
2023-03-12T16:53:24.342Z,36.50
2023-03-12T16:55:54.558Z,35.70
2023-03-12T16:58:24.427Z,35.50
2023-03-12T17:00:53.173Z,35.70
2023-03-12T17:03:35.806Z,36.20
2023-03-12T17:06:04.390Z,36.40
2023-03-12T17:08:31.378Z,35.90
2023-03-12T17:10:59.665Z,36.40
2023-03-12T17:13:28.836Z,36.50
2023-03-12T17:15:56.701Z,36.50
2023-03-12T17:18:24.203Z,36.50
2023-03-12T17:20:51.986Z,36.70
2023-03-12T17:23:19.125Z,37.10
2023-03-12T17:25:46.335Z,37.30
2023-03-12T17:28:15.390Z,37.80
2023-03-12T17:30:42.949Z,38.00
2023-03-12T17:33:12.914Z,38.40
2023-03-12T17:35:40.445Z,38.90
2023-03-12T17:38:07.976Z,38.90
2023-03-12T17:40:39.020Z,39.10
2023-03-12T17:43:05.868Z,39.60
2023-03-12T17:45:32.727Z,39.50
2023-03-12T17:47:59.675Z,39.90
2023-03-12T17:50:26.508Z,40.30
2023-03-12T17:52:53.359Z,40.60
2023-03-12T17:55:20.264Z,40.70
2023-03-12T17:57:47.079Z,40.90
2023-03-12T18:00:14.287Z,41.00
2023-03-12T18:02:42.101Z,40.90
2023-03-12T18:05:10.643Z,41.00
2023-03-12T18:07:37.967Z,41.20
2023-03-12T18:10:07.800Z,41.40
2023-03-12T18:12:35.268Z,41.30
2023-03-12T18:15:02.178Z,41.60
2023-03-12T18:17:29.136Z,41.50
2023-03-12T18:19:56.037Z,41.50
2023-03-12T18:22:24.492Z,41.40
2023-03-12T18:24:51.382Z,41.60
2023-03-12T18:27:18.247Z,41.90
2023-03-12T18:29:45.083Z,42.10
2023-03-12T18:32:11.929Z,42.30
2023-03-12T18:34:42.190Z,42.20
2023-03-12T18:37:09.130Z,42.40
2023-03-12T18:39:35.976Z,42.50
2023-03-12T18:42:02.834Z,43.10
2023-03-12T18:44:29.817Z,43.50
2023-03-12T18:46:56.670Z,43.90
2023-03-12T18:49:23.647Z,44.30
2023-03-12T18:51:54.627Z,44.60
2023-03-12T18:54:24.578Z,45.10
2023-03-12T18:56:51.746Z,45.30
2023-03-12T18:59:18.670Z,45.50
2023-03-12T19:01:45.683Z,45.90
2023-03-12T19:04:17.867Z,46.20
2023-03-12T19:06:51.345Z,46.40
2023-03-12T19:09:19.286Z,46.70
2023-03-12T19:11:49.576Z,46.80
2023-03-12T19:14:16.910Z,46.90
2023-03-12T19:16:43.983Z,47.00
2023-03-12T19:19:10.963Z,47.40
2023-03-12T19:21:37.884Z,47.70
2023-03-12T19:24:04.971Z,47.80
2023-03-12T19:26:31.954Z,48.20
2023-03-12T19:28:58.821Z,48.30
2023-03-12T19:31:25.768Z,48.40
2023-03-12T19:33:53.023Z,49.00
2023-03-12T19:36:19.940Z,48.40
2023-03-12T19:38:46.863Z,48.50
2023-03-12T19:41:13.877Z,48.90
2023-03-12T19:43:41.286Z,49.10
2023-03-12T19:46:08.210Z,48.90
2023-03-12T19:48:35.227Z,48.80
2023-03-12T19:51:09.754Z,48.90
2023-03-12T19:53:36.918Z,47.80
2023-03-12T19:56:04.891Z,48.40
2023-03-12T19:58:31.763Z,48.40
2023-03-12T20:01:01.560Z,48.50
2023-03-12T20:03:29.378Z,48.80
2023-03-12T20:05:56.896Z,48.70
2023-03-12T20:08:27.922Z,48.40
2023-03-12T20:11:04.467Z,48.30
2023-03-12T20:13:31.875Z,48.20
2023-03-12T20:15:59.773Z,48.10
2023-03-12T20:18:26.622Z,48.10
2023-03-12T20:20:53.510Z,48.20
2023-03-12T20:23:20.334Z,48.20
2023-03-12T20:25:50.676Z,48.50
2023-03-12T20:28:18.068Z,48.70
2023-03-12T20:30:45.304Z,48.80
2023-03-12T20:33:12.979Z,48.90
2023-03-12T20:35:40.201Z,49.00
2023-03-12T20:38:07.212Z,48.70
2023-03-12T20:40:34.337Z,48.80
2023-03-12T20:43:05.568Z,48.90
2023-03-12T20:45:33.870Z,49.00
2023-03-12T20:48:01.273Z,49.20
2023-03-12T20:50:28.842Z,49.40
2023-03-12T20:52:55.718Z,49.60
2023-03-12T20:55:22.734Z,49.90
2023-03-12T20:57:49.753Z,50.30
2023-03-12T21:00:17.160Z,50.20
2023-03-12T21:02:44.042Z,50.20
2023-03-12T21:05:11.614Z,50.10
2023-03-12T21:07:38.460Z,50.10
2023-03-12T21:10:05.971Z,50.00
2023-03-12T21:12:32.889Z,50.10
2023-03-12T21:15:06.480Z,49.90
2023-03-12T21:17:34.705Z,50.00
2023-03-12T21:20:03.288Z,50.00
2023-03-12T21:22:31.780Z,50.00
2023-03-12T21:24:58.903Z,50.10
2023-03-12T21:27:26.033Z,50.10
2023-03-12T21:29:53.819Z,50.00
2023-03-12T21:32:21.833Z,50.10
2023-03-12T21:34:49.047Z,50.10
2023-03-12T21:37:16.502Z,50.10
2023-03-12T21:39:43.851Z,50.20
2023-03-12T21:42:10.815Z,50.20
2023-03-12T21:44:38.243Z,50.20
2023-03-12T21:47:05.817Z,50.20
2023-03-12T21:49:34.832Z,50.10
2023-03-12T21:52:02.919Z,50.00
2023-03-12T21:54:34.309Z,49.80
2023-03-12T21:57:02.923Z,49.70
2023-03-12T21:59:30.948Z,49.70
2023-03-12T22:01:58.775Z,49.60
2023-03-12T22:04:25.854Z,49.40
2023-03-12T22:06:52.754Z,49.40
2023-03-12T22:09:19.703Z,49.30
2023-03-12T22:11:46.500Z,49.10
2023-03-12T22:14:13.517Z,48.70
2023-03-12T22:16:40.442Z,48.70
2023-03-12T22:19:07.937Z,48.60
2023-03-12T22:21:34.782Z,48.70
2023-03-12T22:24:02.021Z,49.10
2023-03-12T22:26:29.140Z,50.00
2023-03-12T22:28:57.911Z,49.60
2023-03-12T22:31:26.788Z,49.50
2023-03-12T22:33:53.792Z,49.90
2023-03-12T22:36:21.031Z,49.60
2023-03-12T22:38:48.184Z,49.80
2023-03-12T22:41:23.431Z,50.70
2023-03-12T22:43:52.448Z,50.00
2023-03-12T22:46:21.409Z,50.20
2023-03-12T22:48:52.315Z,50.40
2023-03-12T22:51:19.284Z,50.40
2023-03-12T22:53:46.164Z,50.40
2023-03-12T22:56:14.047Z,50.60
2023-03-12T22:58:41.663Z,50.50
2023-03-12T23:01:14.484Z,50.40
2023-03-12T23:03:43.592Z,50.60
2023-03-12T23:06:19.353Z,50.60
2023-03-12T23:08:47.855Z,50.70
2023-03-12T23:11:15.851Z,50.60
2023-03-12T23:13:44.732Z,50.50
2023-03-12T23:16:18.234Z,50.20
2023-03-12T23:18:45.848Z,50.20
2023-03-12T23:21:16.120Z,50.10
2023-03-12T23:23:44.068Z,50.50
2023-03-12T23:26:17.131Z,50.70
2023-03-12T23:28:44.538Z,50.70
2023-03-12T23:31:11.527Z,50.50
2023-03-12T23:33:38.523Z,50.40
2023-03-12T23:36:20.485Z,50.30
2023-03-12T23:38:48.067Z,50.30
2023-03-12T23:41:17.908Z,50.40
2023-03-12T23:43:45.387Z,50.60
2023-03-12T23:46:13.237Z,50.40
2023-03-12T23:48:41.052Z,50.40
2023-03-12T23:51:16.425Z,50.60
2023-03-12T23:53:45.245Z,50.60
2023-03-12T23:56:15.349Z,50.60
2023-03-12T23:58:43.557Z,50.50
